sensor_id;sensor_type;location;lat;lon;timestamp;temperature;humidity
1297;DHT22;641;48.492;9.184;2022-11-20T00:01:09;8.20;99.90
1297;DHT22;641;48.492;9.184;2022-11-20T00:03:35;8.00;99.90
1297;DHT22;641;48.492;9.184;2022-11-20T00:06:06;8.30;99.90
1297;DHT22;641;48.492;9.184;2022-11-20T00:08:32;8.20;99.90
1297;DHT22;641;48.492;9.184;2022-11-20T00:11:05;8.10;99.90
1297;DHT22;641;48.492;9.184;2022-11-20T00:13:32;8.20;99.90
1297;DHT22;641;48.492;9.184;2022-11-20T00:15:58;8.00;99.90
1297;DHT22;641;48.492;9.184;2022-11-20T00:18:24;8.10;99.90
1297;DHT22;641;48.492;9.184;2022-11-20T00:20:50;8.00;99.90
1297;DHT22;641;48.492;9.184;2022-11-20T00:23:16;8.00;99.90
1297;DHT22;641;48.492;9.184;2022-11-20T00:25:41;8.00;99.90
1297;DHT22;641;48.492;9.184;2022-11-20T00:28:07;7.90;99.90
1297;DHT22;641;48.492;9.184;2022-11-20T00:30:32;7.90;99.90
1297;DHT22;641;48.492;9.184;2022-11-20T00:32:58;8.00;99.90
1297;DHT22;641;48.492;9.184;2022-11-20T00:35:23;7.90;99.90
1297;DHT22;641;48.492;9.184;2022-11-20T00:37:49;7.90;99.90
1297;DHT22;641;48.492;9.184;2022-11-20T00:40:15;7.70;99.90
1297;DHT22;641;48.492;9.184;2022-11-20T00:42:41;8.00;99.90
1297;DHT22;641;48.492;9.184;2022-11-20T00:45:06;7.90;99.90
1297;DHT22;641;48.492;9.184;2022-11-20T00:47:32;7.90;99.90
1297;DHT22;641;48.492;9.184;2022-11-20T00:49:58;7.90;99.90
1297;DHT22;641;48.492;9.184;2022-11-20T00:52:23;7.90;99.90
1297;DHT22;641;48.492;9.184;2022-11-20T00:54:49;7.90;99.90
1297;DHT22;641;48.492;9.184;2022-11-20T00:57:14;7.80;99.90
1297;DHT22;641;48.492;9.184;2022-11-20T00:59:40;8.00;99.90
1297;DHT22;641;48.492;9.184;2022-11-20T01:02:05;7.80;99.90
1297;DHT22;641;48.492;9.184;2022-11-20T01:04:31;7.80;99.90
1297;DHT22;641;48.492;9.184;2022-11-20T01:06:56;7.80;99.90
1297;DHT22;641;48.492;9.184;2022-11-20T01:09:22;7.70;99.90
1297;DHT22;641;48.492;9.184;2022-11-20T01:11:48;7.10;99.90
1297;DHT22;641;48.492;9.184;2022-11-20T01:14:16;7.60;99.90
1297;DHT22;641;48.492;9.184;2022-11-20T01:16:45;7.50;99.90
1297;DHT22;641;48.492;9.184;2022-11-20T01:19:13;7.50;99.90
1297;DHT22;641;48.492;9.184;2022-11-20T01:21:41;7.50;99.90
1297;DHT22;641;48.492;9.184;2022-11-20T01:24:10;7.60;99.90
1297;DHT22;641;48.492;9.184;2022-11-20T01:26:38;7.60;99.90
1297;DHT22;641;48.492;9.184;2022-11-20T01:29:05;7.40;99.90
1297;DHT22;641;48.492;9.184;2022-11-20T01:31:36;7.20;99.90
1297;DHT22;641;48.492;9.184;2022-11-20T01:34:06;7.30;99.90
1297;DHT22;641;48.492;9.184;2022-11-20T01:36:33;7.20;99.90
1297;DHT22;641;48.492;9.184;2022-11-20T01:39:01;7.40;99.90
1297;DHT22;641;48.492;9.184;2022-11-20T01:41:30;7.20;99.90
1297;DHT22;641;48.492;9.184;2022-11-20T01:44:17;7.30;99.90
1297;DHT22;641;48.492;9.184;2022-11-20T01:47:03;7.50;99.90
1297;DHT22;641;48.492;9.184;2022-11-20T01:49:45;7.70;99.90
1297;DHT22;641;48.492;9.184;2022-11-20T01:52:17;7.70;99.90
1297;DHT22;641;48.492;9.184;2022-11-20T01:54:52;7.60;99.90
1297;DHT22;641;48.492;9.184;2022-11-20T01:57:20;7.30;99.90
1297;DHT22;641;48.492;9.184;2022-11-20T01:59:54;7.50;99.90
1297;DHT22;641;48.492;9.184;2022-11-20T02:02:21;7.60;99.90
1297;DHT22;641;48.492;9.184;2022-11-20T02:04:47;7.60;99.90
1297;DHT22;641;48.492;9.184;2022-11-20T02:07:14;7.60;99.90
1297;DHT22;641;48.492;9.184;2022-11-20T02:09:41;7.50;99.90
1297;DHT22;641;48.492;9.184;2022-11-20T02:12:06;7.60;99.90
1297;DHT22;641;48.492;9.184;2022-11-20T02:14:52;7.60;99.90
1297;DHT22;641;48.492;9.184;2022-11-20T02:17:17;7.30;99.90
1297;DHT22;641;48.492;9.184;2022-11-20T02:19:43;7.30;99.90
1297;DHT22;641;48.492;9.184;2022-11-20T02:22:27;7.60;99.90
1297;DHT22;641;48.492;9.184;2022-11-20T02:24:54;7.30;99.90
1297;DHT22;641;48.492;9.184;2022-11-20T02:27:20;7.60;99.90
1297;DHT22;641;48.492;9.184;2022-11-20T02:29:55;7.30;99.90
1297;DHT22;641;48.492;9.184;2022-11-20T02:32:26;7.50;99.90
1297;DHT22;641;48.492;9.184;2022-11-20T02:34:52;7.30;99.90
1297;DHT22;641;48.492;9.184;2022-11-20T02:37:18;7.60;99.90
1297;DHT22;641;48.492;9.184;2022-11-20T02:39:46;7.60;99.90
1297;DHT22;641;48.492;9.184;2022-11-20T02:42:12;7.40;99.90
1297;DHT22;641;48.492;9.184;2022-11-20T02:44:38;7.60;99.90
1297;DHT22;641;48.492;9.184;2022-11-20T02:47:04;7.60;99.90
1297;DHT22;641;48.492;9.184;2022-11-20T02:49:29;7.60;99.90
1297;DHT22;641;48.492;9.184;2022-11-20T02:51:55;7.60;99.90
1297;DHT22;641;48.492;9.184;2022-11-20T02:54:20;7.70;99.90
1297;DHT22;641;48.492;9.184;2022-11-20T02:56:46;7.80;99.90
1297;DHT22;641;48.492;9.184;2022-11-20T02:59:12;7.80;99.90
1297;DHT22;641;48.492;9.184;2022-11-20T03:01:37;8.10;99.90
1297;DHT22;641;48.492;9.184;2022-11-20T03:04:03;8.30;99.90
1297;DHT22;641;48.492;9.184;2022-11-20T03:06:28;8.00;99.90
1297;DHT22;641;48.492;9.184;2022-11-20T03:08:54;8.10;99.90
1297;DHT22;641;48.492;9.184;2022-11-20T03:11:20;7.90;99.90
1297;DHT22;641;48.492;9.184;2022-11-20T03:13:45;8.00;99.90
1297;DHT22;641;48.492;9.184;2022-11-20T03:16:19;7.90;99.90
1297;DHT22;641;48.492;9.184;2022-11-20T03:18:45;8.00;99.90
1297;DHT22;641;48.492;9.184;2022-11-20T03:21:12;8.20;99.90
1297;DHT22;641;48.492;9.184;2022-11-20T03:23:39;7.90;99.90
1297;DHT22;641;48.492;9.184;2022-11-20T03:26:17;7.80;99.90
1297;DHT22;641;48.492;9.184;2022-11-20T03:28:55;7.80;99.90
1297;DHT22;641;48.492;9.184;2022-11-20T03:31:25;7.70;99.90
1297;DHT22;641;48.492;9.184;2022-11-20T03:33:51;7.80;99.90
1297;DHT22;641;48.492;9.184;2022-11-20T03:36:18;8.10;99.90
1297;DHT22;641;48.492;9.184;2022-11-20T03:38:44;7.80;99.90
1297;DHT22;641;48.492;9.184;2022-11-20T03:41:12;7.80;99.90
1297;DHT22;641;48.492;9.184;2022-11-20T03:43:38;8.20;99.90
1297;DHT22;641;48.492;9.184;2022-11-20T03:46:05;8.00;99.90
1297;DHT22;641;48.492;9.184;2022-11-20T03:48:31;8.20;99.90
1297;DHT22;641;48.492;9.184;2022-11-20T03:51:33;8.10;99.90
1297;DHT22;641;48.492;9.184;2022-11-20T03:54:05;8.00;99.90
1297;DHT22;641;48.492;9.184;2022-11-20T03:56:33;7.80;99.90
1297;DHT22;641;48.492;9.184;2022-11-20T03:58:59;8.00;99.90
1297;DHT22;641;48.492;9.184;2022-11-20T04:01:30;7.80;99.90
1297;DHT22;641;48.492;9.184;2022-11-20T04:03:56;8.00;99.90
1297;DHT22;641;48.492;9.184;2022-11-20T04:06:26;8.00;99.90
1297;DHT22;641;48.492;9.184;2022-11-20T04:08:54;8.20;99.90
1297;DHT22;641;48.492;9.184;2022-11-20T04:11:23;8.20;99.90
1297;DHT22;641;48.492;9.184;2022-11-20T04:13:51;8.30;99.90
1297;DHT22;641;48.492;9.184;2022-11-20T04:16:18;8.40;99.90
1297;DHT22;641;48.492;9.184;2022-11-20T04:18:44;8.50;99.90
1297;DHT22;641;48.492;9.184;2022-11-20T04:21:10;8.80;99.90
1297;DHT22;641;48.492;9.184;2022-11-20T04:23:36;8.40;99.90
1297;DHT22;641;48.492;9.184;2022-11-20T04:26:11;8.50;99.90
1297;DHT22;641;48.492;9.184;2022-11-20T04:28:37;8.50;99.90
1297;DHT22;641;48.492;9.184;2022-11-20T04:31:11;8.30;99.90
1297;DHT22;641;48.492;9.184;2022-11-20T04:33:37;8.40;99.90
1297;DHT22;641;48.492;9.184;2022-11-20T04:36:05;8.60;99.90
1297;DHT22;641;48.492;9.184;2022-11-20T04:38:31;8.20;99.90
1297;DHT22;641;48.492;9.184;2022-11-20T04:41:01;8.40;99.90
1297;DHT22;641;48.492;9.184;2022-11-20T04:43:27;8.10;99.90
1297;DHT22;641;48.492;9.184;2022-11-20T04:45:54;8.20;99.90
1297;DHT22;641;48.492;9.184;2022-11-20T04:48:19;8.30;99.90
1297;DHT22;641;48.492;9.184;2022-11-20T04:50:45;8.50;99.90
1297;DHT22;641;48.492;9.184;2022-11-20T04:53:11;8.40;99.90
1297;DHT22;641;48.492;9.184;2022-11-20T04:55:36;8.30;99.90
1297;DHT22;641;48.492;9.184;2022-11-20T04:58:02;8.30;99.90
1297;DHT22;641;48.492;9.184;2022-11-20T05:00:28;8.50;99.90
1297;DHT22;641;48.492;9.184;2022-11-20T05:02:54;8.20;99.90
1297;DHT22;641;48.492;9.184;2022-11-20T05:05:19;8.30;99.90
1297;DHT22;641;48.492;9.184;2022-11-20T05:07:45;8.50;99.90
1297;DHT22;641;48.492;9.184;2022-11-20T05:10:11;8.30;99.90
1297;DHT22;641;48.492;9.184;2022-11-20T05:12:36;8.50;99.90
1297;DHT22;641;48.492;9.184;2022-11-20T05:15:02;8.30;99.90
1297;DHT22;641;48.492;9.184;2022-11-20T05:17:28;8.10;99.90
1297;DHT22;641;48.492;9.184;2022-11-20T05:19:53;8.10;99.90
1297;DHT22;641;48.492;9.184;2022-11-20T05:22:19;8.20;99.90
1297;DHT22;641;48.492;9.184;2022-11-20T05:24:44;8.10;99.90
1297;DHT22;641;48.492;9.184;2022-11-20T05:27:10;7.80;99.90
1297;DHT22;641;48.492;9.184;2022-11-20T05:29:36;7.80;99.90
1297;DHT22;641;48.492;9.184;2022-11-20T05:32:01;7.80;99.90
1297;DHT22;641;48.492;9.184;2022-11-20T05:34:27;7.50;99.90
1297;DHT22;641;48.492;9.184;2022-11-20T05:36:52;7.60;99.90
1297;DHT22;641;48.492;9.184;2022-11-20T05:39:18;7.90;99.90
1297;DHT22;641;48.492;9.184;2022-11-20T05:41:43;7.60;99.90
1297;DHT22;641;48.492;9.184;2022-11-20T05:44:12;7.80;99.90
1297;DHT22;641;48.492;9.184;2022-11-20T05:46:38;7.50;99.90
1297;DHT22;641;48.492;9.184;2022-11-20T05:49:03;7.60;99.90
1297;DHT22;641;48.492;9.184;2022-11-20T05:51:29;7.40;99.90
1297;DHT22;641;48.492;9.184;2022-11-20T05:53:56;7.40;99.90
1297;DHT22;641;48.492;9.184;2022-11-20T05:56:22;7.20;99.90
1297;DHT22;641;48.492;9.184;2022-11-20T05:58:49;7.30;99.90
1297;DHT22;641;48.492;9.184;2022-11-20T06:01:19;7.40;99.90
1297;DHT22;641;48.492;9.184;2022-11-20T06:03:45;7.30;99.90
1297;DHT22;641;48.492;9.184;2022-11-20T06:06:13;7.80;99.90
1297;DHT22;641;48.492;9.184;2022-11-20T06:08:39;7.50;99.90
1297;DHT22;641;48.492;9.184;2022-11-20T06:11:07;7.70;99.90
1297;DHT22;641;48.492;9.184;2022-11-20T06:13:33;7.60;99.90
1297;DHT22;641;48.492;9.184;2022-11-20T06:15:59;7.50;99.90
1297;DHT22;641;48.492;9.184;2022-11-20T06:18:26;7.40;99.90
1297;DHT22;641;48.492;9.184;2022-11-20T06:21:06;7.10;99.90
1297;DHT22;641;48.492;9.184;2022-11-20T06:23:33;7.20;99.90
1297;DHT22;641;48.492;9.184;2022-11-20T06:26:12;7.20;99.90
1297;DHT22;641;48.492;9.184;2022-11-20T06:28:38;7.50;99.90
1297;DHT22;641;48.492;9.184;2022-11-20T06:31:04;7.20;99.90
1297;DHT22;641;48.492;9.184;2022-11-20T06:33:30;7.50;99.90
1297;DHT22;641;48.492;9.184;2022-11-20T06:35:57;7.20;99.90
1297;DHT22;641;48.492;9.184;2022-11-20T06:38:24;7.30;99.90
1297;DHT22;641;48.492;9.184;2022-11-20T06:40:50;7.50;99.90
1297;DHT22;641;48.492;9.184;2022-11-20T06:43:16;7.40;99.90
1297;DHT22;641;48.492;9.184;2022-11-20T06:45:41;7.60;99.90
1297;DHT22;641;48.492;9.184;2022-11-20T06:48:08;7.50;99.90
1297;DHT22;641;48.492;9.184;2022-11-20T06:50:33;7.60;99.90
1297;DHT22;641;48.492;9.184;2022-11-20T06:53:03;7.20;99.90
1297;DHT22;641;48.492;9.184;2022-11-20T06:55:30;7.20;99.90
1297;DHT22;641;48.492;9.184;2022-11-20T06:57:56;7.20;99.90
1297;DHT22;641;48.492;9.184;2022-11-20T07:00:22;7.30;99.90
1297;DHT22;641;48.492;9.184;2022-11-20T07:02:47;7.20;99.90
1297;DHT22;641;48.492;9.184;2022-11-20T07:05:13;7.30;99.90
1297;DHT22;641;48.492;9.184;2022-11-20T07:07:38;7.30;99.90
1297;DHT22;641;48.492;9.184;2022-11-20T07:10:04;7.40;99.90
1297;DHT22;641;48.492;9.184;2022-11-20T07:12:30;7.40;99.90
1297;DHT22;641;48.492;9.184;2022-11-20T07:14:56;7.40;99.90
1297;DHT22;641;48.492;9.184;2022-11-20T07:17:22;7.50;99.90
1297;DHT22;641;48.492;9.184;2022-11-20T07:19:47;7.60;99.90
1297;DHT22;641;48.492;9.184;2022-11-20T07:22:13;7.50;99.90
1297;DHT22;641;48.492;9.184;2022-11-20T07:24:38;7.60;99.90
1297;DHT22;641;48.492;9.184;2022-11-20T07:27:05;7.60;99.90
1297;DHT22;641;48.492;9.184;2022-11-20T07:29:30;7.70;99.90
1297;DHT22;641;48.492;9.184;2022-11-20T07:31:56;7.80;99.90
1297;DHT22;641;48.492;9.184;2022-11-20T07:34:22;7.70;99.90
1297;DHT22;641;48.492;9.184;2022-11-20T07:36:48;7.70;99.90
1297;DHT22;641;48.492;9.184;2022-11-20T07:39:13;8.00;99.90
1297;DHT22;641;48.492;9.184;2022-11-20T07:41:39;7.70;99.90
1297;DHT22;641;48.492;9.184;2022-11-20T07:44:05;7.60;99.90
1297;DHT22;641;48.492;9.184;2022-11-20T07:46:30;7.60;99.90
1297;DHT22;641;48.492;9.184;2022-11-20T07:48:56;7.70;99.90
1297;DHT22;641;48.492;9.184;2022-11-20T07:51:22;7.60;99.90
1297;DHT22;641;48.492;9.184;2022-11-20T07:53:50;7.80;99.90
1297;DHT22;641;48.492;9.184;2022-11-20T07:56:15;7.90;99.90
1297;DHT22;641;48.492;9.184;2022-11-20T07:58:41;8.00;99.90
1297;DHT22;641;48.492;9.184;2022-11-20T08:01:07;7.70;99.90
1297;DHT22;641;48.492;9.184;2022-11-20T08:03:33;8.10;99.90
1297;DHT22;641;48.492;9.184;2022-11-20T08:05:59;8.00;99.90
1297;DHT22;641;48.492;9.184;2022-11-20T08:08:28;8.10;99.90
1297;DHT22;641;48.492;9.184;2022-11-20T08:10:54;8.10;99.90
1297;DHT22;641;48.492;9.184;2022-11-20T08:13:41;8.00;99.90
1297;DHT22;641;48.492;9.184;2022-11-20T08:16:25;8.30;99.90
1297;DHT22;641;48.492;9.184;2022-11-20T08:18:51;8.10;99.90
1297;DHT22;641;48.492;9.184;2022-11-20T08:21:17;8.10;99.90
1297;DHT22;641;48.492;9.184;2022-11-20T08:23:44;8.10;99.90
1297;DHT22;641;48.492;9.184;2022-11-20T08:26:09;8.30;99.90
1297;DHT22;641;48.492;9.184;2022-11-20T08:28:35;8.10;99.90
1297;DHT22;641;48.492;9.184;2022-11-20T08:31:01;8.10;99.90
1297;DHT22;641;48.492;9.184;2022-11-20T08:33:27;7.80;99.90
1297;DHT22;641;48.492;9.184;2022-11-20T08:35:53;7.70;99.90
1297;DHT22;641;48.492;9.184;2022-11-20T08:38:19;7.70;99.90
1297;DHT22;641;48.492;9.184;2022-11-20T08:40:44;8.00;99.90
1297;DHT22;641;48.492;9.184;2022-11-20T08:43:33;8.00;99.90
1297;DHT22;641;48.492;9.184;2022-11-20T08:45:58;8.30;99.90
1297;DHT22;641;48.492;9.184;2022-11-20T08:48:24;8.20;99.90
1297;DHT22;641;48.492;9.184;2022-11-20T08:50:49;8.10;99.90
1297;DHT22;641;48.492;9.184;2022-11-20T08:53:15;8.10;99.90
1297;DHT22;641;48.492;9.184;2022-11-20T08:55:41;7.90;99.90
1297;DHT22;641;48.492;9.184;2022-11-20T08:58:06;7.90;99.90
1297;DHT22;641;48.492;9.184;2022-11-20T09:00:33;7.80;99.90
1297;DHT22;641;48.492;9.184;2022-11-20T09:02:59;8.00;99.90
1297;DHT22;641;48.492;9.184;2022-11-20T09:05:26;8.00;99.90
1297;DHT22;641;48.492;9.184;2022-11-20T09:07:55;8.20;99.90
1297;DHT22;641;48.492;9.184;2022-11-20T09:10:25;8.10;99.90
1297;DHT22;641;48.492;9.184;2022-11-20T09:12:51;8.20;99.90
1297;DHT22;641;48.492;9.184;2022-11-20T09:15:25;8.10;99.90
1297;DHT22;641;48.492;9.184;2022-11-20T09:18:15;8.20;99.90
1297;DHT22;641;48.492;9.184;2022-11-20T09:21:17;8.30;99.90
1297;DHT22;641;48.492;9.184;2022-11-20T09:23:42;8.50;99.90
1297;DHT22;641;48.492;9.184;2022-11-20T09:26:11;8.00;99.90
1297;DHT22;641;48.492;9.184;2022-11-20T09:28:37;8.10;99.90
1297;DHT22;641;48.492;9.184;2022-11-20T09:31:30;8.00;99.90
1297;DHT22;641;48.492;9.184;2022-11-20T09:33:58;8.20;99.90
1297;DHT22;641;48.492;9.184;2022-11-20T09:36:24;8.10;99.90
1297;DHT22;641;48.492;9.184;2022-11-20T09:38:50;8.50;99.90
1297;DHT22;641;48.492;9.184;2022-11-20T09:44:29;8.20;99.90
1297;DHT22;641;48.492;9.184;2022-11-20T09:47:11;8.30;99.90
1297;DHT22;641;48.492;9.184;2022-11-20T10:00:01;8.10;99.90
1297;DHT22;641;48.492;9.184;2022-11-20T10:02:30;8.10;99.90
1297;DHT22;641;48.492;9.184;2022-11-20T10:05:18;8.00;99.90
1297;DHT22;641;48.492;9.184;2022-11-20T10:08:16;8.20;99.90
1297;DHT22;641;48.492;9.184;2022-11-20T10:11:00;8.30;99.90
1297;DHT22;641;48.492;9.184;2022-11-20T10:25:26;8.40;99.90
1297;DHT22;641;48.492;9.184;2022-11-20T10:33:22;8.30;99.90
1297;DHT22;641;48.492;9.184;2022-11-20T10:35:51;8.40;99.90
1297;DHT22;641;48.492;9.184;2022-11-20T10:38:25;8.30;99.90
1297;DHT22;641;48.492;9.184;2022-11-20T10:41:01;8.50;99.90
1297;DHT22;641;48.492;9.184;2022-11-20T10:43:56;8.50;99.90
1297;DHT22;641;48.492;9.184;2022-11-20T10:46:29;8.50;99.90
1297;DHT22;641;48.492;9.184;2022-11-20T10:48:57;8.80;99.90
1297;DHT22;641;48.492;9.184;2022-11-20T10:51:51;8.80;99.90
1297;DHT22;641;48.492;9.184;2022-11-20T11:02:35;9.10;99.90
1297;DHT22;641;48.492;9.184;2022-11-20T11:07:54;8.90;99.90
1297;DHT22;641;48.492;9.184;2022-11-20T11:54:30;9.70;99.90
1297;DHT22;641;48.492;9.184;2022-11-20T11:57:05;10.00;99.90
1297;DHT22;641;48.492;9.184;2022-11-20T12:00:03;10.10;99.90
1297;DHT22;641;48.492;9.184;2022-11-20T12:05:26;10.10;99.90
1297;DHT22;641;48.492;9.184;2022-11-20T12:08:04;9.40;99.90
1297;DHT22;641;48.492;9.184;2022-11-20T12:16:01;10.00;99.90
1297;DHT22;641;48.492;9.184;2022-11-20T12:18:27;10.20;99.90
1297;DHT22;641;48.492;9.184;2022-11-20T12:23:57;9.70;99.90
1297;DHT22;641;48.492;9.184;2022-11-20T12:35:20;9.50;99.90
1297;DHT22;641;48.492;9.184;2022-11-20T12:43:34;9.70;99.90
1297;DHT22;641;48.492;9.184;2022-11-20T12:46:42;9.70;99.90
1297;DHT22;641;48.492;9.184;2022-11-20T12:52:20;9.40;99.90
1297;DHT22;641;48.492;9.184;2022-11-20T12:54:53;9.40;99.90
1297;DHT22;641;48.492;9.184;2022-11-20T12:58:12;9.00;99.90
1297;DHT22;641;48.492;9.184;2022-11-20T13:00:20;9.00;99.90
1297;DHT22;641;48.492;9.184;2022-11-20T13:03:03;8.90;99.90
1297;DHT22;641;48.492;9.184;2022-11-20T13:08:29;9.00;99.90
1297;DHT22;641;48.492;9.184;2022-11-20T13:13:59;9.30;99.90
1297;DHT22;641;48.492;9.184;2022-11-20T13:19:14;9.40;99.90
1297;DHT22;641;48.492;9.184;2022-11-20T13:21:49;9.70;99.90
1297;DHT22;641;48.492;9.184;2022-11-20T13:26:44;9.20;99.90
1297;DHT22;641;48.492;9.184;2022-11-20T13:29:18;8.80;99.90
1297;DHT22;641;48.492;9.184;2022-11-20T13:31:48;9.30;99.90
1297;DHT22;641;48.492;9.184;2022-11-20T13:34:24;9.30;99.90
1297;DHT22;641;48.492;9.184;2022-11-20T13:36:56;8.80;99.90
1297;DHT22;641;48.492;9.184;2022-11-20T13:39:30;9.00;99.90
1297;DHT22;641;48.492;9.184;2022-11-20T13:42:01;8.80;99.90
1297;DHT22;641;48.492;9.184;2022-11-20T15:56:14;8.90;99.90
1297;DHT22;641;48.492;9.184;2022-11-20T15:58:40;8.90;99.90
1297;DHT22;641;48.492;9.184;2022-11-20T16:01:14;9.00;99.90
1297;DHT22;641;48.492;9.184;2022-11-20T16:03:40;8.90;99.90
1297;DHT22;641;48.492;9.184;2022-11-20T16:06:06;8.80;99.90
